Terminal Aerodrome Forecast
Issued by NWS

Home | Current Version | Previous Version | Text Only | Print | Product List | Glossary Off
Versions: 1 2 3 4 5 6 7 8 9 10 11 12 13 14

000
FTUS43 KICT 271120
TAFSLN
TAF
KSLN 271120Z 2712/2812 36009KT P6SM SCT015 BKN025
     FM271500 01009KT P6SM BKN035
     FM271800 02004KT P6SM SCT040 OVC080
     FM272200 19005KT P6SM OVC070=

USA.gov is the U.S. government's official web portal to all federal, state and local government web resources and services.